sensor_id;sensor_type;location;lat;lon;timestamp;pressure;altitude;pressure_sealevel;temperature;humidity
37852;BME280;23691;52.486;4.650;2023-02-28T00:00:51;103300.25;;;4.71;74.22
37852;BME280;23691;52.486;4.650;2023-02-28T00:03:17;103295.75;;;4.73;74.32
37852;BME280;23691;52.486;4.650;2023-02-28T00:05:42;103299.25;;;4.73;74.63
37852;BME280;23691;52.486;4.650;2023-02-28T00:08:08;103297.41;;;4.76;74.51
37852;BME280;23691;52.486;4.650;2023-02-28T00:10:34;103301.75;;;4.77;74.54
37852;BME280;23691;52.486;4.650;2023-02-28T00:13:04;103294.66;;;4.77;74.79
37852;BME280;23691;52.486;4.650;2023-02-28T00:15:30;103293.66;;;4.80;74.95
37852;BME280;23691;52.486;4.650;2023-02-28T00:17:56;103299.84;;;4.80;74.68
37852;BME280;23691;52.486;4.650;2023-02-28T00:20:22;103302.44;;;4.82;74.57
37852;BME280;23691;52.486;4.650;2023-02-28T00:22:50;103287.38;;;4.82;74.83
37852;BME280;23691;52.486;4.650;2023-02-28T00:25:18;103295.22;;;4.85;74.85
37852;BME280;23691;52.486;4.650;2023-02-28T00:27:45;103287.97;;;4.89;74.62
37852;BME280;23691;52.486;4.650;2023-02-28T00:30:13;103285.16;;;4.92;74.59
37852;BME280;23691;52.486;4.650;2023-02-28T00:32:42;103285.97;;;4.94;74.64
37852;BME280;23691;52.486;4.650;2023-02-28T00:35:08;103284.25;;;4.93;75.06
37852;BME280;23691;52.486;4.650;2023-02-28T00:37:34;103280.66;;;4.94;75.22
37852;BME280;23691;52.486;4.650;2023-02-28T00:40:00;103272.66;;;4.95;74.84
37852;BME280;23691;52.486;4.650;2023-02-28T00:42:27;103277.81;;;4.99;75.06
37852;BME280;23691;52.486;4.650;2023-02-28T00:44:52;103279.47;;;5.01;74.95
37852;BME280;23691;52.486;4.650;2023-02-28T00:47:18;103278.56;;;5.02;75.12
37852;BME280;23691;52.486;4.650;2023-02-28T00:49:43;103279.31;;;5.04;75.21
37852;BME280;23691;52.486;4.650;2023-02-28T00:52:11;103277.56;;;5.05;75.05
37852;BME280;23691;52.486;4.650;2023-02-28T00:54:37;103281.97;;;5.04;75.30
37852;BME280;23691;52.486;4.650;2023-02-28T00:57:02;103274.97;;;5.03;75.36
37852;BME280;23691;52.486;4.650;2023-02-28T00:59:28;103282.13;;;5.01;75.34
37852;BME280;23691;52.486;4.650;2023-02-28T01:01:53;103275.97;;;5.01;76.06
37852;BME280;23691;52.486;4.650;2023-02-28T01:04:21;103280.31;;;5.02;75.71
37852;BME280;23691;52.486;4.650;2023-02-28T01:06:46;103278.56;;;5.02;75.66
37852;BME280;23691;52.486;4.650;2023-02-28T01:09:11;103290.03;;;5.03;75.95
37852;BME280;23691;52.486;4.650;2023-02-28T01:11:37;103286.50;;;5.02;75.97
37852;BME280;23691;52.486;4.650;2023-02-28T01:14:04;103283.72;;;5.05;76.21
37852;BME280;23691;52.486;4.650;2023-02-28T01:16:30;103275.75;;;5.05;76.00
37852;BME280;23691;52.486;4.650;2023-02-28T01:18:57;103280.22;;;5.05;76.04
37852;BME280;23691;52.486;4.650;2023-02-28T01:21:26;103268.78;;;5.03;76.42
37852;BME280;23691;52.486;4.650;2023-02-28T01:23:51;103262.63;;;5.02;76.25
37852;BME280;23691;52.486;4.650;2023-02-28T01:26:19;103265.06;;;5.07;76.29
37852;BME280;23691;52.486;4.650;2023-02-28T01:28:46;103268.44;;;5.10;76.21
37852;BME280;23691;52.486;4.650;2023-02-28T01:31:11;103263.09;;;5.12;76.24
37852;BME280;23691;52.486;4.650;2023-02-28T01:33:38;103262.13;;;5.13;76.36
37852;BME280;23691;52.486;4.650;2023-02-28T01:36:05;103263.09;;;5.12;76.49
37852;BME280;23691;52.486;4.650;2023-02-28T01:38:31;103250.56;;;5.14;76.56
37852;BME280;23691;52.486;4.650;2023-02-28T01:40:57;103257.69;;;5.13;76.56
37852;BME280;23691;52.486;4.650;2023-02-28T01:43:25;103252.47;;;5.12;76.69
37852;BME280;23691;52.486;4.650;2023-02-28T01:45:53;103257.78;;;5.12;76.45
37852;BME280;23691;52.486;4.650;2023-02-28T01:48:30;103257.78;;;5.12;76.51
37852;BME280;23691;52.486;4.650;2023-02-28T01:50:59;103257.69;;;5.13;76.70
37852;BME280;23691;52.486;4.650;2023-02-28T01:53:32;103247.91;;;5.14;76.73
37852;BME280;23691;52.486;4.650;2023-02-28T01:55:59;103248.81;;;5.14;76.76
37852;BME280;23691;52.486;4.650;2023-02-28T01:58:25;103243.25;;;5.19;76.66
37852;BME280;23691;52.486;4.650;2023-02-28T02:00:51;103246.81;;;5.20;76.77
37852;BME280;23691;52.486;4.650;2023-02-28T02:03:19;103250.31;;;5.20;76.82
37852;BME280;23691;52.486;4.650;2023-02-28T02:05:45;103237.84;;;5.22;76.32
37852;BME280;23691;52.486;4.650;2023-02-28T02:08:16;103242.13;;;5.25;76.63
37852;BME280;23691;52.486;4.650;2023-02-28T02:10:53;103234.19;;;5.25;76.56
37852;BME280;23691;52.486;4.650;2023-02-28T02:18:54;103232.16;;;5.30;76.34
37852;BME280;23691;52.486;4.650;2023-02-28T02:29:57;103226.06;;;5.28;76.40
37852;BME280;23691;52.486;4.650;2023-02-28T02:35:30;103225.47;;;5.21;76.98
37852;BME280;23691;52.486;4.650;2023-02-28T02:43:22;103210.41;;;5.22;77.09
37852;BME280;23691;52.486;4.650;2023-02-28T02:46:01;103210.41;;;5.22;77.10
37852;BME280;23691;52.486;4.650;2023-02-28T02:48:31;103207.03;;;5.18;77.37
37852;BME280;23691;52.486;4.650;2023-02-28T02:51:01;103211.41;;;5.19;77.59
37852;BME280;23691;52.486;4.650;2023-02-28T02:53:38;103211.28;;;5.22;77.62
37852;BME280;23691;52.486;4.650;2023-02-28T02:56:07;103214.75;;;5.24;77.55
37852;BME280;23691;52.486;4.650;2023-02-28T02:58:36;103213.72;;;5.27;77.70
37852;BME280;23691;52.486;4.650;2023-02-28T03:01:08;103223.41;;;5.28;77.67
37852;BME280;23691;52.486;4.650;2023-02-28T03:03:38;103212.72;;;5.29;77.72
37852;BME280;23691;52.486;4.650;2023-02-28T03:06:04;103218.09;;;5.28;77.91
37852;BME280;23691;52.486;4.650;2023-02-28T03:08:35;103218.03;;;5.29;77.83
37852;BME280;23691;52.486;4.650;2023-02-28T03:11:04;103223.25;;;5.31;77.63
37852;BME280;23691;52.486;4.650;2023-02-28T03:14:06;103222.34;;;5.32;77.72
37852;BME280;23691;52.486;4.650;2023-02-28T03:22:11;103212.94;;;5.25;77.91
37852;BME280;23691;52.486;4.650;2023-02-28T03:30:10;103217.09;;;5.30;77.81
37852;BME280;23691;52.486;4.650;2023-02-28T03:32:53;103228.50;;;5.32;77.93
37852;BME280;23691;52.486;4.650;2023-02-28T03:35:23;103219.69;;;5.32;77.93
37852;BME280;23691;52.486;4.650;2023-02-28T03:37:56;103221.47;;;5.31;77.86
37852;BME280;23691;52.486;4.650;2023-02-28T03:40:28;103224.19;;;5.30;77.96
37852;BME280;23691;52.486;4.650;2023-02-28T03:42:59;103227.06;;;5.25;78.02
37852;BME280;23691;52.486;4.650;2023-02-28T03:45:33;103224.63;;;5.21;78.52
37852;BME280;23691;52.486;4.650;2023-02-28T03:48:17;103227.28;;;5.21;78.51
37852;BME280;23691;52.486;4.650;2023-02-28T03:50:46;103225.41;;;5.23;78.67
37852;BME280;23691;52.486;4.650;2023-02-28T03:53:46;103223.41;;;5.28;78.33
37852;BME280;23691;52.486;4.650;2023-02-28T03:56:23;103219.03;;;5.27;78.28
37852;BME280;23691;52.486;4.650;2023-02-28T04:01:44;103214.75;;;5.24;78.28
37852;BME280;23691;52.486;4.650;2023-02-28T04:04:11;103216.38;;;5.27;78.48
37852;BME280;23691;52.486;4.650;2023-02-28T04:06:37;103212.72;;;5.29;78.25
37852;BME280;23691;52.486;4.650;2023-02-28T04:09:04;103213.72;;;5.27;78.38
37852;BME280;23691;52.486;4.650;2023-02-28T04:11:36;103220.81;;;5.26;78.69
37852;BME280;23691;52.486;4.650;2023-02-28T04:14:04;103210.19;;;5.26;78.57
37852;BME280;23691;52.486;4.650;2023-02-28T04:16:31;103211.84;;;5.29;78.39
37852;BME280;23691;52.486;4.650;2023-02-28T04:18:57;103207.41;;;5.29;78.53
37852;BME280;23691;52.486;4.650;2023-02-28T04:21:31;103209.13;;;5.30;78.32
37852;BME280;23691;52.486;4.650;2023-02-28T04:23:57;103203.81;;;5.30;78.38
37852;BME280;23691;52.486;4.650;2023-02-28T04:26:27;103206.47;;;5.30;78.33
37852;BME280;23691;52.486;4.650;2023-02-28T04:28:52;103207.47;;;5.28;78.22
37852;BME280;23691;52.486;4.650;2023-02-28T04:31:18;103209.28;;;5.27;78.32
37852;BME280;23691;52.486;4.650;2023-02-28T04:33:43;103211.78;;;5.30;78.35
37852;BME280;23691;52.486;4.650;2023-02-28T04:36:09;103211.84;;;5.29;78.26
37852;BME280;23691;52.486;4.650;2023-02-28T04:38:36;103208.34;;;5.28;78.06
37852;BME280;23691;52.486;4.650;2023-02-28T04:41:02;103206.47;;;5.30;78.09
37852;BME280;23691;52.486;4.650;2023-02-28T04:43:28;103207.41;;;5.29;78.24
37852;BME280;23691;52.486;4.650;2023-02-28T04:45:55;103208.28;;;5.30;78.21
37852;BME280;23691;52.486;4.650;2023-02-28T04:48:27;103210.84;;;5.31;78.34
37852;BME280;23691;52.486;4.650;2023-02-28T04:50:53;103210.13;;;5.28;78.32
37852;BME280;23691;52.486;4.650;2023-02-28T04:53:19;103210.06;;;5.29;78.50
37852;BME280;23691;52.486;4.650;2023-02-28T04:55:45;103211.72;;;5.32;78.34
37852;BME280;23691;52.486;4.650;2023-02-28T04:58:13;103212.63;;;5.31;78.50
37852;BME280;23691;52.486;4.650;2023-02-28T05:00:39;103211.84;;;5.29;78.74
37852;BME280;23691;52.486;4.650;2023-02-28T05:03:05;103205.97;;;5.22;78.98
37852;BME280;23691;52.486;4.650;2023-02-28T05:05:30;103207.03;;;5.18;79.31
37852;BME280;23691;52.486;4.650;2023-02-28T05:07:56;103212.34;;;5.18;79.48
37852;BME280;23691;52.486;4.650;2023-02-28T05:10:22;103207.84;;;5.20;79.46
37852;BME280;23691;52.486;4.650;2023-02-28T05:12:47;103214.84;;;5.21;79.55
37852;BME280;23691;52.486;4.650;2023-02-28T05:15:16;103221.91;;;5.22;79.63
37852;BME280;23691;52.486;4.650;2023-02-28T05:17:42;103217.41;;;5.24;79.65
37852;BME280;23691;52.486;4.650;2023-02-28T05:20:09;103211.19;;;5.24;79.79
37852;BME280;23691;52.486;4.650;2023-02-28T05:22:36;103210.28;;;5.25;79.75
37852;BME280;23691;52.486;4.650;2023-02-28T05:25:03;103206.69;;;5.26;79.94
37852;BME280;23691;52.486;4.650;2023-02-28T05:27:29;103203.13;;;5.27;80.13
37852;BME280;23691;52.486;4.650;2023-02-28T05:29:55;103197.66;;;5.30;80.12
37852;BME280;23691;52.486;4.650;2023-02-28T05:32:21;103198.50;;;5.30;80.20
37852;BME280;23691;52.486;4.650;2023-02-28T05:34:48;103200.22;;;5.31;80.22
37852;BME280;23691;52.486;4.650;2023-02-28T05:37:14;103203.66;;;5.33;80.27
37852;BME280;23691;52.486;4.650;2023-02-28T05:39:41;103202.81;;;5.33;80.29
37852;BME280;23691;52.486;4.650;2023-02-28T05:42:06;103205.31;;;5.36;80.16
37852;BME280;23691;52.486;4.650;2023-02-28T05:44:32;103206.09;;;5.38;80.25
37852;BME280;23691;52.486;4.650;2023-02-28T05:46:58;103208.91;;;5.35;80.51
37852;BME280;23691;52.486;4.650;2023-02-28T05:49:23;103200.94;;;5.35;80.44
37852;BME280;23691;52.486;4.650;2023-02-28T05:51:49;103208.06;;;5.34;80.53
37852;BME280;23691;52.486;4.650;2023-02-28T05:54:14;103210.63;;;5.36;80.60
37852;BME280;23691;52.486;4.650;2023-02-28T05:56:40;103204.41;;;5.37;80.91
37852;BME280;23691;52.486;4.650;2023-02-28T05:59:09;103207.84;;;5.39;80.93
37852;BME280;23691;52.486;4.650;2023-02-28T06:01:38;103206.91;;;5.40;80.73
37852;BME280;23691;52.486;4.650;2023-02-28T06:04:05;103206.91;;;5.40;80.99
37852;BME280;23691;52.486;4.650;2023-02-28T06:06:31;103200.59;;;5.43;80.64
37852;BME280;23691;52.486;4.650;2023-02-28T06:08:59;103204.03;;;5.45;80.85
37852;BME280;23691;52.486;4.650;2023-02-28T06:11:24;103206.69;;;5.45;81.16
37852;BME280;23691;52.486;4.650;2023-02-28T06:13:56;103199.63;;;5.44;81.01
37852;BME280;23691;52.486;4.650;2023-02-28T06:16:22;103206.84;;;5.42;81.12
37852;BME280;23691;52.486;4.650;2023-02-28T06:18:48;103208.53;;;5.43;81.32
37852;BME280;23691;52.486;4.650;2023-02-28T06:21:13;103212.06;;;5.43;81.27
37852;BME280;23691;52.486;4.650;2023-02-28T06:23:39;103213.16;;;5.39;81.28
37852;BME280;23691;52.486;4.650;2023-02-28T06:26:04;103213.16;;;5.39;81.16
37852;BME280;23691;52.486;4.650;2023-02-28T06:28:30;103208.13;;;5.33;81.53
37852;BME280;23691;52.486;4.650;2023-02-28T06:30:56;103215.38;;;5.29;81.47
37852;BME280;23691;52.486;4.650;2023-02-28T06:33:21;103211.13;;;5.25;81.43
37852;BME280;23691;52.486;4.650;2023-02-28T06:35:49;103217.41;;;5.24;81.20
37852;BME280;23691;52.486;4.650;2023-02-28T06:38:15;103214.81;;;5.23;81.38
37852;BME280;23691;52.486;4.650;2023-02-28T06:40:40;103220.25;;;5.20;81.60
37852;BME280;23691;52.486;4.650;2023-02-28T06:43:06;103212.34;;;5.18;81.40
37852;BME280;23691;52.486;4.650;2023-02-28T06:45:32;103211.41;;;5.19;81.19
37852;BME280;23691;52.486;4.650;2023-02-28T06:47:57;103212.28;;;5.20;81.27
37852;BME280;23691;52.486;4.650;2023-02-28T06:50:23;103214.94;;;5.20;81.36
37852;BME280;23691;52.486;4.650;2023-02-28T06:52:48;103221.25;;;5.17;81.57
37852;BME280;23691;52.486;4.650;2023-02-28T06:55:18;103216.88;;;5.16;81.39
37852;BME280;23691;52.486;4.650;2023-02-28T06:57:44;103217.72;;;5.16;81.38
37852;BME280;23691;52.486;4.650;2023-02-28T07:00:10;103221.25;;;5.17;81.25
37852;BME280;23691;52.486;4.650;2023-02-28T07:02:36;103218.47;;;5.20;81.32
37852;BME280;23691;52.486;4.650;2023-02-28T07:05:03;103221.25;;;5.17;81.20
37852;BME280;23691;52.486;4.650;2023-02-28T07:07:28;103225.63;;;5.18;81.79
37852;BME280;23691;52.486;4.650;2023-02-28T07:09:53;103218.59;;;5.17;81.54
37852;BME280;23691;52.486;4.650;2023-02-28T07:12:19;103223.03;;;5.16;81.37
37852;BME280;23691;52.486;4.650;2023-02-28T07:14:44;103233.66;;;5.16;81.43
37852;BME280;23691;52.486;4.650;2023-02-28T07:17:10;103235.44;;;5.16;81.45
37852;BME280;23691;52.486;4.650;2023-02-28T07:19:37;103238.97;;;5.16;81.76
37852;BME280;23691;52.486;4.650;2023-02-28T07:22:03;103235.53;;;5.14;81.30
37852;BME280;23691;52.486;4.650;2023-02-28T07:24:28;103234.84;;;5.09;81.64
37852;BME280;23691;52.486;4.650;2023-02-28T07:26:54;103238.50;;;5.07;81.50
37852;BME280;23691;52.486;4.650;2023-02-28T07:29:20;103229.91;;;5.02;81.45
37852;BME280;23691;52.486;4.650;2023-02-28T07:31:45;103237.81;;;5.03;81.14
37852;BME280;23691;52.486;4.650;2023-02-28T07:34:12;103235.22;;;5.02;81.09
37852;BME280;23691;52.486;4.650;2023-02-28T07:36:37;103244.16;;;4.99;81.19
37852;BME280;23691;52.486;4.650;2023-02-28T07:39:02;103239.97;;;4.95;80.95
37852;BME280;23691;52.486;4.650;2023-02-28T07:41:29;103242.63;;;4.95;81.10
37852;BME280;23691;52.486;4.650;2023-02-28T07:43:54;103240.16;;;4.90;80.84
37852;BME280;23691;52.486;4.650;2023-02-28T07:46:22;103244.66;;;4.88;80.88
37852;BME280;23691;52.486;4.650;2023-02-28T07:48:47;103239.50;;;4.85;80.62
37852;BME280;23691;52.486;4.650;2023-02-28T07:51:13;103244.22;;;4.79;81.09
37852;BME280;23691;52.486;4.650;2023-02-28T07:53:39;103249.56;;;4.77;81.00
37852;BME280;23691;52.486;4.650;2023-02-28T07:56:04;103253.22;;;4.74;80.93
37852;BME280;23691;52.486;4.650;2023-02-28T07:58:30;103244.34;;;4.76;81.16
37852;BME280;23691;52.486;4.650;2023-02-28T08:00:56;103249.66;;;4.76;81.04
37852;BME280;23691;52.486;4.650;2023-02-28T08:03:23;103248.91;;;4.72;81.10
37852;BME280;23691;52.486;4.650;2023-02-28T08:05:49;103256.16;;;4.68;81.00
37852;BME280;23691;52.486;4.650;2023-02-28T08:08:16;103260.66;;;4.66;81.16
37852;BME280;23691;52.486;4.650;2023-02-28T08:10:43;103269.63;;;4.64;81.05
37852;BME280;23691;52.486;4.650;2023-02-28T08:13:08;103278.44;;;4.64;81.07
37852;BME280;23691;52.486;4.650;2023-02-28T08:15:33;103276.91;;;4.59;80.82
37852;BME280;23691;52.486;4.650;2023-02-28T08:17:59;103281.47;;;4.55;81.08
37852;BME280;23691;52.486;4.650;2023-02-28T08:20:25;103286.72;;;4.57;80.88
37852;BME280;23691;52.486;4.650;2023-02-28T08:22:51;103279.72;;;4.56;80.47
37852;BME280;23691;52.486;4.650;2023-02-28T08:25:16;103282.53;;;4.51;80.69
37852;BME280;23691;52.486;4.650;2023-02-28T08:27:42;103283.78;;;4.42;80.22
37852;BME280;23691;52.486;4.650;2023-02-28T08:30:10;103274.13;;;4.41;80.55
37852;BME280;23691;52.486;4.650;2023-02-28T08:32:36;103283.88;;;4.41;80.16
37852;BME280;23691;52.486;4.650;2023-02-28T08:35:01;103275.78;;;4.44;80.16
37852;BME280;23691;52.486;4.650;2023-02-28T08:37:28;103277.56;;;4.43;79.49
37852;BME280;23691;52.486;4.650;2023-02-28T08:39:53;103276.81;;;4.40;79.48
37852;BME280;23691;52.486;4.650;2023-02-28T08:42:18;103283.31;;;4.33;80.11
37852;BME280;23691;52.486;4.650;2023-02-28T08:44:44;103281.47;;;4.35;79.79
37852;BME280;23691;52.486;4.650;2023-02-28T08:47:09;103279.56;;;4.38;79.96
37852;BME280;23691;52.486;4.650;2023-02-28T08:49:34;103282.88;;;4.43;79.55
37852;BME280;23691;52.486;4.650;2023-02-28T08:52:00;103280.03;;;4.48;79.50
37852;BME280;23691;52.486;4.650;2023-02-28T08:54:25;103289.75;;;4.47;79.67
37852;BME280;23691;52.486;4.650;2023-02-28T08:56:51;103284.44;;;4.47;79.65
37852;BME280;23691;52.486;4.650;2023-02-28T08:59:16;103294.88;;;4.52;79.78
37852;BME280;23691;52.486;4.650;2023-02-28T09:01:41;103292.53;;;4.44;79.51
37852;BME280;23691;52.486;4.650;2023-02-28T09:04:08;103297.13;;;4.41;79.52
37852;BME280;23691;52.486;4.650;2023-02-28T09:06:36;103297.22;;;4.38;79.78
37852;BME280;23691;52.486;4.650;2023-02-28T09:09:01;103304.31;;;4.37;79.57
37852;BME280;23691;52.486;4.650;2023-02-28T09:11:28;103300.97;;;4.34;79.36
37852;BME280;23691;52.486;4.650;2023-02-28T09:13:53;103307.91;;;4.36;79.20
37852;BME280;23691;52.486;4.650;2023-02-28T09:16:21;103298.13;;;4.38;79.60
37852;BME280;23691;52.486;4.650;2023-02-28T09:18:46;103292.53;;;4.44;79.35
37852;BME280;23691;52.486;4.650;2023-02-28T09:21:14;103301.09;;;4.51;79.27
37852;BME280;23691;52.486;4.650;2023-02-28T09:23:41;103299.16;;;4.55;78.96
37852;BME280;23691;52.486;4.650;2023-02-28T09:26:07;103294.72;;;4.55;78.77
37852;BME280;23691;52.486;4.650;2023-02-28T09:28:33;103299.13;;;4.56;79.08
37852;BME280;23691;52.486;4.650;2023-02-28T09:30:59;103303.28;;;4.62;79.03
37852;BME280;23691;52.486;4.650;2023-02-28T09:33:25;103299.66;;;4.64;78.96
37852;BME280;23691;52.486;4.650;2023-02-28T09:35:57;103297.50;;;4.72;78.81
37852;BME280;23691;52.486;4.650;2023-02-28T09:38:23;103303.63;;;4.74;78.85
37852;BME280;23691;52.486;4.650;2023-02-28T09:40:54;103297.97;;;4.82;78.95
37852;BME280;23691;52.486;4.650;2023-02-28T09:43:24;103300.38;;;4.88;78.68
37852;BME280;23691;52.486;4.650;2023-02-28T09:46:00;103296.44;;;4.97;78.77
37852;BME280;23691;52.486;4.650;2023-02-28T09:48:35;103298.78;;;5.05;78.70
37852;BME280;23691;52.486;4.650;2023-02-28T09:51:27;103301.00;;;5.14;78.46
37852;BME280;23691;52.486;4.650;2023-02-28T09:53:55;103298.59;;;5.28;78.55
37852;BME280;23691;52.486;4.650;2023-02-28T09:56:25;103308.84;;;5.36;78.36
37852;BME280;23691;52.486;4.650;2023-02-28T09:59:02;103310.59;;;5.37;78.35
37852;BME280;23691;52.486;4.650;2023-02-28T10:01:36;103307.19;;;5.33;78.47
37852;BME280;23691;52.486;4.650;2023-02-28T10:04:18;103306.41;;;5.31;78.53
37852;BME280;23691;52.486;4.650;2023-02-28T10:06:49;103306.28;;;5.34;78.39
37852;BME280;23691;52.486;4.650;2023-02-28T10:09:25;103302.63;;;5.37;78.36
37852;BME280;23691;52.486;4.650;2023-02-28T10:11:54;103295.38;;;5.41;78.25
37852;BME280;23691;52.486;4.650;2023-02-28T10:14:23;103303.28;;;5.42;78.25
37852;BME280;23691;52.486;4.650;2023-02-28T10:16:59;103297.88;;;5.44;78.06
37852;BME280;23691;52.486;4.650;2023-02-28T10:22:24;103293.56;;;5.60;77.36
37852;BME280;23691;52.486;4.650;2023-02-28T10:24:54;103298.38;;;5.71;77.13
37852;BME280;23691;52.486;4.650;2023-02-28T10:27:28;103303.19;;;5.81;76.77
37852;BME280;23691;52.486;4.650;2023-02-28T10:29:59;103293.22;;;5.87;76.91
37852;BME280;23691;52.486;4.650;2023-02-28T10:32:34;103299.97;;;5.94;76.73
37852;BME280;23691;52.486;4.650;2023-02-28T10:35:21;103303.13;;;6.02;76.53
37852;BME280;23691;52.486;4.650;2023-02-28T10:37:54;103311.72;;;6.07;76.33
37852;BME280;23691;52.486;4.650;2023-02-28T10:45:28;103297.59;;;6.24;75.12
37852;BME280;23691;52.486;4.650;2023-02-28T10:47:57;103297.06;;;6.35;74.64
37852;BME280;23691;52.486;4.650;2023-02-28T10:51:36;103305.38;;;6.46;74.43
37852;BME280;23691;52.486;4.650;2023-02-28T10:53:55;103297.16;;;6.51;74.01
37852;BME280;23691;52.486;4.650;2023-02-28T10:56:22;103292.22;;;6.60;73.35
37852;BME280;23691;52.486;4.650;2023-02-28T10:58:55;103287.31;;;6.70;73.11
37852;BME280;23691;52.486;4.650;2023-02-28T11:01:54;103279.84;;;6.77;72.68
37852;BME280;23691;52.486;4.650;2023-02-28T11:04:23;103276.09;;;6.81;72.21
37852;BME280;23691;52.486;4.650;2023-02-28T11:09:27;103281.78;;;6.91;71.49
37852;BME280;23691;52.486;4.650;2023-02-28T11:11:56;103282.56;;;6.93;71.39
37852;BME280;23691;52.486;4.650;2023-02-28T11:14:25;103286.94;;;6.94;71.17
37852;BME280;23691;52.486;4.650;2023-02-28T11:16:52;103284.81;;;7.00;70.95
37852;BME280;23691;52.486;4.650;2023-02-28T11:19:21;103284.25;;;7.11;70.58
37852;BME280;23691;52.486;4.650;2023-02-28T11:22:06;103284.19;;;7.28;70.04
37852;BME280;23691;52.486;4.650;2023-02-28T11:24:36;103284.47;;;7.24;69.71
37852;BME280;23691;52.486;4.650;2023-02-28T11:27:02;103288.16;;;7.21;69.42
37852;BME280;23691;52.486;4.650;2023-02-28T11:29:32;103289.78;;;7.24;69.09
37852;BME280;23691;52.486;4.650;2023-02-28T11:32:18;103288.59;;;7.29;68.72
37852;BME280;23691;52.486;4.650;2023-02-28T11:34:46;103281.28;;;7.33;68.09
37852;BME280;23691;52.486;4.650;2023-02-28T11:37:17;103281.03;;;7.38;67.40
37852;BME280;23691;52.486;4.650;2023-02-28T11:39:44;103278.66;;;7.49;67.46
37852;BME280;23691;52.486;4.650;2023-02-28T11:47:44;103282.09;;;7.83;65.47
37852;BME280;23691;52.486;4.650;2023-02-28T11:50:42;103288.88;;;7.88;65.29
37852;BME280;23691;52.486;4.650;2023-02-28T11:55:47;103281.06;;;7.85;64.53
37852;BME280;23691;52.486;4.650;2023-02-28T11:58:32;103280.03;;;7.88;64.17
37852;BME280;23691;52.486;4.650;2023-02-28T12:01:09;103281.13;;;7.84;63.77
37852;BME280;23691;52.486;4.650;2023-02-28T12:03:51;103279.31;;;7.84;63.30
37852;BME280;23691;52.486;4.650;2023-02-28T12:09:18;103262.38;;;8.01;62.18
37852;BME280;23691;52.486;4.650;2023-02-28T12:12:00;103255.03;;;8.05;61.90
37852;BME280;23691;52.486;4.650;2023-02-28T12:14:55;103253.84;;;8.10;61.57
37852;BME280;23691;52.486;4.650;2023-02-28T12:23:46;103252.09;;;8.25;61.09
37852;BME280;23691;52.486;4.650;2023-02-28T12:28:39;103246.31;;;8.17;60.76
37852;BME280;23691;52.486;4.650;2023-02-28T12:31:35;103238.50;;;8.14;60.39
37852;BME280;23691;52.486;4.650;2023-02-28T12:34:06;103243.06;;;8.12;60.01
37852;BME280;23691;52.486;4.650;2023-02-28T12:36:35;103237.34;;;8.04;59.28
37852;BME280;23691;52.486;4.650;2023-02-28T12:39:08;103242.84;;;8.01;58.84
37852;BME280;23691;52.486;4.650;2023-02-28T12:42:11;103238.63;;;7.96;58.67
37852;BME280;23691;52.486;4.650;2023-02-28T12:44:59;103237.72;;;7.98;58.90
37852;BME280;23691;52.486;4.650;2023-02-28T12:47:26;103231.41;;;7.99;58.98
37852;BME280;23691;52.486;4.650;2023-02-28T12:50:10;103226.50;;;8.07;58.98
37852;BME280;23691;52.486;4.650;2023-02-28T12:52:59;103225.63;;;8.06;58.42
37852;BME280;23691;52.486;4.650;2023-02-28T13:09:01;103218.53;;;8.21;57.68
37852;BME280;23691;52.486;4.650;2023-02-28T13:11:39;103220.16;;;8.24;57.31
37852;BME280;23691;52.486;4.650;2023-02-28T13:14:18;103212.44;;;8.19;56.77
37852;BME280;23691;52.486;4.650;2023-02-28T13:22:37;103210.25;;;8.26;56.48
37852;BME280;23691;52.486;4.650;2023-02-28T13:28:12;103212.28;;;8.22;56.21
37852;BME280;23691;52.486;4.650;2023-02-28T13:38:48;103213.78;;;8.26;55.58
37852;BME280;23691;52.486;4.650;2023-02-28T13:44:19;103199.72;;;8.38;55.27
37852;BME280;23691;52.486;4.650;2023-02-28T13:54:54;103195.75;;;8.15;54.02
37852;BME280;23691;52.486;4.650;2023-02-28T13:57:44;103191.22;;;8.17;53.86
37852;BME280;23691;52.486;4.650;2023-02-28T14:03:38;103188.13;;;8.09;53.67
37852;BME280;23691;52.486;4.650;2023-02-28T14:06:28;103190.03;;;8.07;53.29
37852;BME280;23691;52.486;4.650;2023-02-28T14:11:37;103194.72;;;7.88;53.33
37852;BME280;23691;52.486;4.650;2023-02-28T14:14:05;103187.00;;;7.83;53.87
37852;BME280;23691;52.486;4.650;2023-02-28T14:16:40;103178.31;;;7.80;53.85
37852;BME280;23691;52.486;4.650;2023-02-28T14:19:26;103180.38;;;7.74;54.00
37852;BME280;23691;52.486;4.650;2023-02-28T14:24:57;103172.00;;;7.66;54.16
37852;BME280;23691;52.486;4.650;2023-02-28T14:36:10;103175.00;;;7.28;54.13
37852;BME280;23691;52.486;4.650;2023-02-28T14:38:45;103174.34;;;7.25;54.19
37852;BME280;23691;52.486;4.650;2023-02-28T14:43:57;103169.94;;;7.08;54.41
37852;BME280;23691;52.486;4.650;2023-02-28T14:46:34;103164.72;;;7.06;54.75
37852;BME280;23691;52.486;4.650;2023-02-28T14:49:04;103167.47;;;7.05;54.68
37852;BME280;23691;52.486;4.650;2023-02-28T14:51:30;103178.78;;;7.08;54.94
37852;BME280;23691;52.486;4.650;2023-02-28T14:53:59;103173.22;;;7.13;54.90
37852;BME280;23691;52.486;4.650;2023-02-28T14:56:28;103178.78;;;7.08;54.89
37852;BME280;23691;52.486;4.650;2023-02-28T14:58:56;103171.81;;;7.06;54.99
37852;BME280;23691;52.486;4.650;2023-02-28T15:01:23;103177.16;;;7.06;54.77
37852;BME280;23691;52.486;4.650;2023-02-28T15:04:00;103168.41;;;7.04;54.77
37852;BME280;23691;52.486;4.650;2023-02-28T15:06:28;103175.88;;;6.97;54.84
37852;BME280;23691;52.486;4.650;2023-02-28T15:09:30;103180.72;;;6.89;54.46
37852;BME280;23691;52.486;4.650;2023-02-28T15:11:55;103173.94;;;6.83;54.50
37852;BME280;23691;52.486;4.650;2023-02-28T15:14:21;103172.31;;;6.81;54.58
37852;BME280;23691;52.486;4.650;2023-02-28T15:16:52;103177.75;;;6.79;54.66
37852;BME280;23691;52.486;4.650;2023-02-28T15:19:32;103172.41;;;6.79;55.17
37852;BME280;23691;52.486;4.650;2023-02-28T15:22:03;103176.78;;;6.80;55.15